createdAt,value
2019-01-25T00:01:12.624Z,77.87
2019-01-25T00:03:39.338Z,75.03
2019-01-25T00:06:06.655Z,67.70
2019-01-25T00:08:33.325Z,67.20
2019-01-25T00:10:59.947Z,67.40
2019-01-25T00:13:26.570Z,76.37
2019-01-25T00:15:53.131Z,84.10
2019-01-25T00:18:19.917Z,79.83
2019-01-25T00:20:46.417Z,75.43
2019-01-25T00:23:13.299Z,78.27
2019-01-25T00:25:39.984Z,80.60
2019-01-25T00:28:06.465Z,81.23
2019-01-25T00:30:33.030Z,77.97
2019-01-25T00:32:59.665Z,73.70
2019-01-25T00:35:27.096Z,76.27
2019-01-25T00:37:53.679Z,75.00
2019-01-25T00:40:20.401Z,72.07
2019-01-25T00:42:47.368Z,69.40
2019-01-25T00:45:14.326Z,76.53
2019-01-25T00:47:40.934Z,75.13
2019-01-25T00:50:11.687Z,70.87
2019-01-25T00:52:38.195Z,77.60
2019-01-25T00:55:05.388Z,70.53
2019-01-25T00:57:32.121Z,87.57
2019-01-25T00:59:58.583Z,78.80
2019-01-25T01:02:25.466Z,78.73
2019-01-25T01:04:52.218Z,82.67
2019-01-25T01:07:19.921Z,73.53
2019-01-25T01:09:46.648Z,82.23
2019-01-25T01:12:13.461Z,85.63
2019-01-25T01:14:40.019Z,86.63
2019-01-25T01:17:07.007Z,83.10
2019-01-25T01:19:34.820Z,83.07
2019-01-25T01:22:01.850Z,71.27
2019-01-25T01:24:28.394Z,73.60
2019-01-25T01:26:54.945Z,78.47
2019-01-25T01:29:21.762Z,73.63
2019-01-25T01:31:48.509Z,78.83
2019-01-25T01:34:15.050Z,75.67
2019-01-25T01:36:42.581Z,76.97
2019-01-25T01:39:09.572Z,75.90
2019-01-25T01:41:36.170Z,74.90
2019-01-25T01:44:03.106Z,71.40
2019-01-25T01:46:29.711Z,74.80
2019-01-25T01:48:56.291Z,73.77
2019-01-25T01:51:22.920Z,69.33
2019-01-25T01:53:49.394Z,73.93
2019-01-25T01:56:15.996Z,77.77
2019-01-25T01:58:42.552Z,77.87
2019-01-25T02:01:09.262Z,75.23
2019-01-25T02:03:35.944Z,74.30
2019-01-25T02:06:02.705Z,62.47
2019-01-25T02:08:29.361Z,75.50
2019-01-25T02:10:56.102Z,70.20
2019-01-25T02:13:23.163Z,67.83
2019-01-25T02:15:49.836Z,69.77
2019-01-25T02:18:16.334Z,75.00
2019-01-25T02:20:42.981Z,71.90
2019-01-25T02:23:09.636Z,71.53
2019-01-25T02:25:36.299Z,77.17
2019-01-25T02:28:03.034Z,70.33
2019-01-25T02:30:29.750Z,69.77
2019-01-25T02:32:57.368Z,73.53
2019-01-25T02:35:23.971Z,67.80
2019-01-25T02:37:50.703Z,66.73
2019-01-25T02:40:19.470Z,77.60
2019-01-25T02:42:46.228Z,71.10
2019-01-25T02:45:23.771Z,70.13
2019-01-25T02:47:50.653Z,69.53
2019-01-25T02:50:17.793Z,69.87
2019-01-25T02:52:44.680Z,67.17
2019-01-25T02:55:11.655Z,68.83
2019-01-25T02:57:38.359Z,69.30
2019-01-25T03:00:17.585Z,72.87
2019-01-25T03:02:44.716Z,64.77
2019-01-25T03:05:13.615Z,62.07
2019-01-25T03:07:40.123Z,74.73
2019-01-25T03:10:09.021Z,72.33
2019-01-25T03:12:35.781Z,64.33
2019-01-25T03:15:02.686Z,72.80
2019-01-25T03:17:29.470Z,77.47
2019-01-25T03:19:56.143Z,67.93
2019-01-25T03:22:23.062Z,71.63
2019-01-25T03:24:49.654Z,63.30
2019-01-25T03:27:16.200Z,71.87
2019-01-25T03:29:42.733Z,74.27
2019-01-25T03:32:09.365Z,66.57
2019-01-25T03:34:36.117Z,74.00
2019-01-25T03:37:02.906Z,77.13
2019-01-25T03:39:29.472Z,67.33
2019-01-25T03:41:55.907Z,65.07
2019-01-25T03:44:22.528Z,69.23
2019-01-25T03:46:49.051Z,67.20
2019-01-25T03:49:16.068Z,67.13
2019-01-25T03:51:42.736Z,74.80
2019-01-25T03:54:10.129Z,65.60
2019-01-25T03:56:36.819Z,68.27
2019-01-25T03:59:03.743Z,69.37
2019-01-25T04:01:30.237Z,75.07
2019-01-25T04:03:56.742Z,67.83
2019-01-25T04:06:23.856Z,68.57
2019-01-25T04:08:50.669Z,69.50
2019-01-25T04:11:17.622Z,67.83
2019-01-25T04:13:44.175Z,69.33
2019-01-25T04:16:10.880Z,75.97
2019-01-25T04:18:37.345Z,70.50
2019-01-25T04:21:03.957Z,74.53
2019-01-25T04:23:30.513Z,69.40
2019-01-25T04:25:57.170Z,68.07
2019-01-25T04:28:23.689Z,69.50
2019-01-25T04:30:50.352Z,67.83
2019-01-25T04:33:19.079Z,68.03
2019-01-25T04:35:47.210Z,77.47
2019-01-25T04:38:13.699Z,74.20
2019-01-25T04:40:40.452Z,75.13
2019-01-25T04:43:07.094Z,73.93
2019-01-25T04:45:33.813Z,83.27
2019-01-25T04:48:00.390Z,72.67
2019-01-25T04:50:27.269Z,74.97
2019-01-25T04:52:54.286Z,75.33
2019-01-25T04:55:25.717Z,77.07
2019-01-25T04:57:52.367Z,76.70
2019-01-25T05:00:19.705Z,81.97
2019-01-25T05:02:54.574Z,85.03
2019-01-25T05:05:21.430Z,86.13
2019-01-25T05:07:49.443Z,81.30
2019-01-25T05:10:15.995Z,88.93
2019-01-25T05:12:53.090Z,83.63
2019-01-25T05:15:19.383Z,81.33
2019-01-25T05:17:52.876Z,88.33
2019-01-25T05:20:19.564Z,82.47
2019-01-25T05:22:52.347Z,86.50
2019-01-25T05:25:21.429Z,82.40
2019-01-25T05:27:47.953Z,92.57
2019-01-25T05:30:14.657Z,86.37
2019-01-25T05:32:41.229Z,84.83
2019-01-25T05:35:07.935Z,88.00
2019-01-25T05:37:34.752Z,83.80
2019-01-25T05:40:01.404Z,82.17
2019-01-25T05:42:27.868Z,82.53
2019-01-25T05:44:54.699Z,77.57
2019-01-25T05:47:21.603Z,81.20
2019-01-25T05:49:48.146Z,91.43
2019-01-25T05:52:17.207Z,80.73
2019-01-25T05:54:43.819Z,90.47
2019-01-25T05:57:10.481Z,84.53
2019-01-25T05:59:37.017Z,87.37
2019-01-25T06:02:03.790Z,86.87
2019-01-25T06:04:34.971Z,77.03
2019-01-25T06:07:02.223Z,82.63
2019-01-25T06:09:28.749Z,85.83
2019-01-25T06:11:55.628Z,83.70
2019-01-25T06:14:22.296Z,82.20
2019-01-25T06:16:51.116Z,80.07
2019-01-25T06:19:17.710Z,87.13
2019-01-25T06:21:44.223Z,81.90
2019-01-25T06:24:11.169Z,75.70
2019-01-25T06:26:41.885Z,80.77
2019-01-25T06:29:08.386Z,87.60
2019-01-25T06:31:34.896Z,83.07
2019-01-25T06:34:01.710Z,79.80
2019-01-25T06:36:32.021Z,92.70
2019-01-25T06:38:58.549Z,93.07
2019-01-25T06:41:25.129Z,84.00
2019-01-25T06:43:51.914Z,84.73
2019-01-25T06:46:18.403Z,84.80
2019-01-25T06:48:47.679Z,85.53
2019-01-25T06:51:14.218Z,88.00
2019-01-25T06:53:40.831Z,79.33
2019-01-25T06:56:07.698Z,88.07
2019-01-25T06:58:42.653Z,82.70
2019-01-25T07:01:31.829Z,85.77
2019-01-25T07:03:58.749Z,78.83
2019-01-25T07:06:25.313Z,96.30
2019-01-25T07:08:54.377Z,86.43
2019-01-25T07:11:22.891Z,94.73
2019-01-25T07:13:52.052Z,87.27
2019-01-25T07:16:18.592Z,87.90
2019-01-25T07:18:45.241Z,93.60
2019-01-25T07:21:14.299Z,90.27
2019-01-25T07:23:41.966Z,87.83
2019-01-25T07:26:08.697Z,84.30
2019-01-25T07:28:35.284Z,90.50
2019-01-25T07:31:02.175Z,86.87
2019-01-25T07:33:28.837Z,98.23
2019-01-25T07:35:55.693Z,88.80
2019-01-25T07:38:22.254Z,84.33
2019-01-25T07:40:51.381Z,87.43
2019-01-25T07:43:18.083Z,96.07
2019-01-25T07:45:44.712Z,88.33
2019-01-25T07:48:14.245Z,87.13
2019-01-25T07:50:41.641Z,78.93
2019-01-25T07:53:08.245Z,85.47
2019-01-25T07:55:34.808Z,94.23
2019-01-25T07:58:01.336Z,94.33
2019-01-25T08:44:04.669Z,81.13
2019-01-25T08:46:31.229Z,87.27
2019-01-25T08:48:58.972Z,75.17
2019-01-25T08:51:25.895Z,78.83
2019-01-25T08:53:53.097Z,87.57
2019-01-25T08:56:19.789Z,90.77
2019-01-25T08:58:46.797Z,71.80
2019-01-25T09:01:13.461Z,84.60
2019-01-25T09:03:40.148Z,84.37
2019-01-25T09:06:07.143Z,80.40
2019-01-25T09:08:34.295Z,77.73
2019-01-25T09:11:01.296Z,86.57
2019-01-25T09:13:27.841Z,87.03
2019-01-25T09:15:54.427Z,86.40
2019-01-25T09:18:21.426Z,89.10
2019-01-25T09:20:48.116Z,75.73
2019-01-25T09:23:14.929Z,86.63
2019-01-25T09:25:41.561Z,91.20
2019-01-25T09:28:08.177Z,89.30
2019-01-25T09:30:34.713Z,79.93
2019-01-25T09:33:01.315Z,81.60
2019-01-25T09:35:29.064Z,82.57
2019-01-25T09:37:55.715Z,82.57
2019-01-25T09:40:23.054Z,86.60
2019-01-25T09:42:51.149Z,82.83
2019-01-25T09:45:18.191Z,85.80
2019-01-25T09:47:44.890Z,78.37
2019-01-25T09:50:13.400Z,80.00
2019-01-25T09:52:41.216Z,76.47
2019-01-25T09:55:10.570Z,76.17
2019-01-25T09:57:39.201Z,76.87
2019-01-25T10:00:16.735Z,76.33
2019-01-25T10:02:43.683Z,70.93
2019-01-25T10:05:10.272Z,72.90
2019-01-25T10:07:36.842Z,70.87
2019-01-25T10:10:04.862Z,72.53
2019-01-25T10:12:36.116Z,74.43
2019-01-25T10:14:59.977Z,74.07
2019-01-25T10:17:27.860Z,76.50
2019-01-25T10:19:54.413Z,66.53
2019-01-25T10:22:21.097Z,78.90
2019-01-25T10:24:50.131Z,67.67
2019-01-25T10:27:16.671Z,60.93
2019-01-25T10:29:43.201Z,69.87
2019-01-25T10:32:10.004Z,73.20
2019-01-25T10:34:36.682Z,58.03
2019-01-25T10:37:03.429Z,66.40
2019-01-25T10:39:32.582Z,64.70
2019-01-25T10:41:59.114Z,67.53
2019-01-25T10:44:25.638Z,59.70
2019-01-25T10:46:58.225Z,65.03
2019-01-25T10:49:24.721Z,60.73
2019-01-25T10:51:51.575Z,60.63
2019-01-25T10:54:18.645Z,59.13
2019-01-25T10:56:45.240Z,68.00
2019-01-25T10:59:11.872Z,60.03
2019-01-25T11:01:38.542Z,62.63
2019-01-25T11:04:05.511Z,52.70
2019-01-25T11:06:32.050Z,61.47
2019-01-25T11:08:58.559Z,60.73
2019-01-25T11:11:25.094Z,65.37
2019-01-25T11:13:51.822Z,55.97
2019-01-25T11:16:18.375Z,58.13
2019-01-25T11:18:45.333Z,61.13
2019-01-25T11:21:11.885Z,61.37
2019-01-25T11:23:39.649Z,57.73
2019-01-25T11:26:06.254Z,52.87
2019-01-25T11:28:32.802Z,60.87
2019-01-25T11:30:59.410Z,56.00
2019-01-25T11:33:26.105Z,61.07
2019-01-25T11:35:52.771Z,53.77
2019-01-25T11:38:20.366Z,54.93
2019-01-25T11:40:46.889Z,50.23
2019-01-25T11:43:13.564Z,58.63
2019-01-25T11:45:42.235Z,60.27
2019-01-25T11:48:14.212Z,53.17
2019-01-25T11:50:41.686Z,51.40
2019-01-25T11:53:24.279Z,51.23
2019-01-25T11:55:59.967Z,58.70
2019-01-25T11:58:26.515Z,54.17
2019-01-25T12:00:53.294Z,52.10
2019-01-25T12:03:20.601Z,48.93
2019-01-25T12:05:47.242Z,48.83
2019-01-25T12:08:13.819Z,50.03
2019-01-25T12:10:42.571Z,49.70
2019-01-25T12:13:15.850Z,51.90
2019-01-25T12:15:38.026Z,53.63
2019-01-25T12:18:04.690Z,61.40
2019-01-25T12:20:33.241Z,54.17
2019-01-25T12:23:00.348Z,55.23
2019-01-25T12:25:27.062Z,55.40
2019-01-25T12:27:54.113Z,51.37
2019-01-25T12:30:30.485Z,57.30
2019-01-25T12:32:57.222Z,52.93
2019-01-25T12:35:23.999Z,52.87
2019-01-25T12:37:51.026Z,62.27
2019-01-25T12:40:17.597Z,56.07
2019-01-25T12:42:44.360Z,61.43
2019-01-25T12:45:16.734Z,58.57
2019-01-25T12:47:43.443Z,57.47
2019-01-25T12:50:15.812Z,58.27
2019-01-25T12:52:42.306Z,56.73
2019-01-25T12:55:09.082Z,63.30
2019-01-25T12:57:35.542Z,59.43
2019-01-25T13:00:03.136Z,61.70
2019-01-25T13:02:29.742Z,61.73
2019-01-25T13:04:56.272Z,57.47
2019-01-25T13:07:23.138Z,50.67
2019-01-25T13:09:49.696Z,57.17
2019-01-25T13:12:16.542Z,55.53
2019-01-25T13:14:43.148Z,57.83
2019-01-25T13:17:09.627Z,52.83
2019-01-25T13:19:42.834Z,45.03
2019-01-25T13:22:09.365Z,48.57
2019-01-25T13:24:35.940Z,50.57
2019-01-25T13:27:02.480Z,50.37
2019-01-25T13:29:29.075Z,50.23
2019-01-25T13:31:55.675Z,47.03
2019-01-25T13:34:24.517Z,45.23
2019-01-25T13:36:57.045Z,50.03
2019-01-25T13:39:19.673Z,40.17
2019-01-25T13:41:46.301Z,45.53
2019-01-25T13:44:13.147Z,45.63
2019-01-25T13:46:39.691Z,42.47
2019-01-25T13:49:06.330Z,44.33
2019-01-25T13:51:33.967Z,43.63
2019-01-25T13:54:00.439Z,44.10
2019-01-25T13:56:27.471Z,44.90
2019-01-25T13:58:53.976Z,42.97
2019-01-25T14:01:20.547Z,39.87
2019-01-25T14:03:48.002Z,45.20
2019-01-25T14:06:14.607Z,38.93
2019-01-25T14:08:41.862Z,41.00
2019-01-25T14:11:09.831Z,43.53
2019-01-25T14:13:36.523Z,39.73
2019-01-25T14:16:03.651Z,39.27
2019-01-25T14:18:30.138Z,36.00
2019-01-25T14:20:56.899Z,37.73
2019-01-25T14:23:23.457Z,37.70
2019-01-25T14:25:51.089Z,35.30
2019-01-25T14:28:18.965Z,40.13
2019-01-25T14:30:45.890Z,36.30
2019-01-25T14:33:12.527Z,39.40
2019-01-25T14:35:39.601Z,37.53
2019-01-25T14:38:08.045Z,38.37
2019-01-25T14:40:34.965Z,33.03
2019-01-25T14:43:01.683Z,32.10
2019-01-25T14:45:28.507Z,38.37
2019-01-25T14:47:55.072Z,37.07
2019-01-25T14:50:22.060Z,37.20
2019-01-25T14:52:49.918Z,35.57
2019-01-25T14:55:16.374Z,40.13
2019-01-25T14:57:43.028Z,45.47
2019-01-25T15:00:09.659Z,33.70
2019-01-25T15:02:43.278Z,32.40
2019-01-25T15:05:12.486Z,34.60
2019-01-25T15:07:42.961Z,39.80
2019-01-25T15:10:14.942Z,38.37
2019-01-25T15:12:41.862Z,33.73
2019-01-25T15:15:10.087Z,40.67
2019-01-25T15:17:36.794Z,31.97
2019-01-25T15:20:05.706Z,33.00
2019-01-25T15:22:32.306Z,29.87
2019-01-25T15:25:00.195Z,37.03
2019-01-25T15:27:27.571Z,38.93
2019-01-25T15:29:54.614Z,34.17
2019-01-25T15:32:21.166Z,34.00
2019-01-25T15:34:47.935Z,36.37
2019-01-25T15:37:14.519Z,38.40
2019-01-25T15:39:41.340Z,32.80
2019-01-25T15:42:07.970Z,29.73
2019-01-25T15:44:34.507Z,39.10
2019-01-25T15:47:00.981Z,38.87
2019-01-25T15:49:28.659Z,37.93
2019-01-25T15:51:55.315Z,38.03
2019-01-25T15:54:21.855Z,36.73
2019-01-25T15:56:48.353Z,39.50
2019-01-25T15:59:14.863Z,40.63
2019-01-25T16:01:41.796Z,34.07
2019-01-25T16:04:08.402Z,44.00
2019-01-25T16:06:35.504Z,40.67
2019-01-25T16:09:04.226Z,38.50
2019-01-25T16:11:30.730Z,38.37
2019-01-25T16:13:57.565Z,36.20
2019-01-25T16:16:24.052Z,35.73
2019-01-25T16:18:50.788Z,35.17
2019-01-25T16:21:17.337Z,43.50
2019-01-25T16:23:43.798Z,40.37
2019-01-25T16:26:15.343Z,35.77
2019-01-25T16:28:42.148Z,33.77
2019-01-25T16:31:08.752Z,38.10
2019-01-25T16:33:35.260Z,38.30
2019-01-25T16:36:01.998Z,40.60
2019-01-25T16:38:28.512Z,35.63
2019-01-25T16:40:59.271Z,40.67
2019-01-25T16:44:08.110Z,32.20
2019-01-25T16:46:36.717Z,41.20
2019-01-25T16:49:03.702Z,36.33
2019-01-25T16:51:32.283Z,41.07
2019-01-25T16:53:59.084Z,30.83
2019-01-25T16:56:27.082Z,34.00
2019-01-25T16:58:59.347Z,37.70
2019-01-25T17:01:35.323Z,29.63
2019-01-25T17:04:02.267Z,35.97
2019-01-25T17:06:29.487Z,36.00
2019-01-25T17:08:56.046Z,31.03
2019-01-25T17:11:22.745Z,34.03
2019-01-25T17:13:49.375Z,29.20
2019-01-25T17:16:16.123Z,36.10
2019-01-25T17:18:42.758Z,32.77
2019-01-25T17:21:09.372Z,26.73
2019-01-25T17:23:36.222Z,27.53
2019-01-25T17:26:03.934Z,26.13
2019-01-25T17:28:30.470Z,30.43
2019-01-25T17:30:57.160Z,27.70
2019-01-25T17:33:23.754Z,28.30
2019-01-25T17:35:50.789Z,27.33
2019-01-25T17:38:19.434Z,27.80
2019-01-25T17:40:47.034Z,25.83
2019-01-25T17:43:13.844Z,27.87
2019-01-25T17:45:41.575Z,23.73
2019-01-25T17:48:08.514Z,27.40
2019-01-25T17:50:35.185Z,26.97
2019-01-25T17:53:03.065Z,26.27
2019-01-25T17:55:29.755Z,21.10
2019-01-25T17:57:56.316Z,23.53
2019-01-25T18:00:28.006Z,22.73
2019-01-25T18:02:54.760Z,18.83
2019-01-25T18:05:21.819Z,19.50
2019-01-25T18:07:48.639Z,24.73
2019-01-25T18:10:15.340Z,25.17
2019-01-25T18:12:42.140Z,27.93
2019-01-25T18:15:09.828Z,23.97
2019-01-25T18:17:36.935Z,22.50
2019-01-25T18:20:04.244Z,21.97
2019-01-25T18:22:30.786Z,19.13
2019-01-25T18:25:01.792Z,22.97
2019-01-25T18:27:28.418Z,24.03
2019-01-25T18:29:57.125Z,25.80
2019-01-25T18:32:24.007Z,24.60
2019-01-25T18:34:50.647Z,22.50
2019-01-25T18:37:21.405Z,22.83
2019-01-25T18:39:48.231Z,21.43
2019-01-25T18:42:15.265Z,25.77
2019-01-25T18:44:41.853Z,25.13
2019-01-25T18:47:08.576Z,21.80
2019-01-25T18:49:35.142Z,22.47
2019-01-25T18:52:01.738Z,23.90
2019-01-25T18:54:28.494Z,20.43
2019-01-25T18:56:55.193Z,22.97
2019-01-25T18:59:21.841Z,21.20
2019-01-25T19:01:48.581Z,20.47
2019-01-25T19:04:15.243Z,26.53
2019-01-25T19:06:42.300Z,24.33
2019-01-25T19:09:09.268Z,22.57
2019-01-25T19:11:36.161Z,21.27
2019-01-25T19:14:03.013Z,23.40
2019-01-25T19:16:30.069Z,23.57
2019-01-25T19:18:56.603Z,22.03
2019-01-25T19:21:23.382Z,24.13
2019-01-25T19:23:49.971Z,26.43
2019-01-25T19:26:16.658Z,23.27
2019-01-25T19:28:43.141Z,22.90
2019-01-25T19:31:09.880Z,23.17
2019-01-25T19:33:36.534Z,22.57
2019-01-25T19:36:03.971Z,22.77
2019-01-25T19:38:30.519Z,24.40
2019-01-25T19:40:56.998Z,22.23
2019-01-25T19:43:24.700Z,23.50
2019-01-25T19:45:51.376Z,22.70
2019-01-25T19:48:17.905Z,20.27
2019-01-25T19:50:44.556Z,28.43
2019-01-25T19:53:11.169Z,24.40
2019-01-25T19:55:39.054Z,23.43
2019-01-25T19:58:07.500Z,21.93
2019-01-25T20:00:36.691Z,25.23
2019-01-25T20:03:04.153Z,25.23
2019-01-25T20:05:31.027Z,21.53
2019-01-25T20:07:57.854Z,24.43
2019-01-25T20:10:26.088Z,25.00
2019-01-25T20:12:52.820Z,26.37
2019-01-25T20:15:20.727Z,21.97
2019-01-25T20:17:47.322Z,21.67
2019-01-25T20:20:21.422Z,21.10
2019-01-25T20:22:49.094Z,25.57
2019-01-25T20:25:15.853Z,25.37
2019-01-25T20:27:42.696Z,20.47
2019-01-25T20:30:12.671Z,27.40
2019-01-25T20:32:46.413Z,24.13
2019-01-25T20:35:15.182Z,24.90
2019-01-25T20:37:43.930Z,22.30
2019-01-25T20:40:13.515Z,23.27
2019-01-25T20:42:40.560Z,23.07
2019-01-25T20:45:10.344Z,24.20
2019-01-25T20:47:37.893Z,26.73
2019-01-25T20:50:07.026Z,27.30
2019-01-25T20:52:33.490Z,24.67
2019-01-25T20:55:01.981Z,31.73
2019-01-25T20:57:29.591Z,25.57
2019-01-25T20:59:56.656Z,26.20
2019-01-25T21:02:24.493Z,29.13
2019-01-25T21:04:52.280Z,28.80
2019-01-25T21:07:23.560Z,31.30
2019-01-25T21:09:50.171Z,32.17
2019-01-25T21:12:16.789Z,32.47
2019-01-25T21:14:44.519Z,32.80
2019-01-25T21:17:11.355Z,38.00
2019-01-25T21:19:37.877Z,36.87
2019-01-25T21:22:04.581Z,33.00
2019-01-25T21:24:33.120Z,34.43
2019-01-25T21:26:59.782Z,39.17
2019-01-25T21:29:27.572Z,33.27
2019-01-25T21:31:54.179Z,31.70
2019-01-25T21:34:21.378Z,36.07
2019-01-25T21:36:49.155Z,35.10
2019-01-25T21:39:16.765Z,37.93
2019-01-25T21:41:44.625Z,36.97
2019-01-25T21:44:11.837Z,40.23
2019-01-25T21:46:40.369Z,36.37
2019-01-25T21:49:07.409Z,35.87
2019-01-25T21:51:33.941Z,41.03
2019-01-25T21:54:00.779Z,41.70
2019-01-25T21:56:27.676Z,39.80
2019-01-25T21:58:54.320Z,38.70
2019-01-25T22:01:20.827Z,39.37
2019-01-25T22:03:47.372Z,37.93
2019-01-25T22:06:15.072Z,38.40
2019-01-25T22:08:41.867Z,35.37
2019-01-25T22:11:08.602Z,34.87
2019-01-25T22:13:35.199Z,38.53
2019-01-25T22:16:06.993Z,34.30
2019-01-25T22:18:34.990Z,36.07
2019-01-25T22:21:01.477Z,33.10
2019-01-25T22:23:29.496Z,32.80
2019-01-25T22:25:55.965Z,34.83
2019-01-25T22:28:22.483Z,33.53
2019-01-25T22:30:49.148Z,30.77
2019-01-25T22:33:15.646Z,31.53
2019-01-25T22:35:42.413Z,31.73
2019-01-25T22:38:11.018Z,31.30
2019-01-25T22:40:37.676Z,24.70
2019-01-25T22:43:05.504Z,28.83
2019-01-25T22:45:32.304Z,24.23
2019-01-25T22:48:00.526Z,23.63
2019-01-25T22:50:28.916Z,25.33
2019-01-25T22:52:55.535Z,21.03
2019-01-25T22:55:23.735Z,22.73
2019-01-25T22:57:51.107Z,22.20
2019-01-25T23:01:22.020Z,19.50
2019-01-25T23:04:46.014Z,22.70
2019-01-25T23:07:18.339Z,21.80
2019-01-25T23:09:47.957Z,22.10
2019-01-25T23:12:14.668Z,21.87
2019-01-25T23:14:41.605Z,20.53
2019-01-25T23:17:08.326Z,23.13
2019-01-25T23:19:34.869Z,19.77
2019-01-25T23:22:01.665Z,19.43
2019-01-25T23:24:28.355Z,23.00
2019-01-25T23:26:54.877Z,18.40
2019-01-25T23:29:21.530Z,17.83
2019-01-25T23:31:51.158Z,19.93
2019-01-25T23:34:17.783Z,19.17
2019-01-25T23:36:44.292Z,17.60
2019-01-25T23:39:11.092Z,17.20
2019-01-25T23:41:37.789Z,16.37
2019-01-25T23:44:04.422Z,17.20
2019-01-25T23:46:31.248Z,18.87
2019-01-25T23:48:58.948Z,21.23
2019-01-25T23:51:26.579Z,18.17
2019-01-25T23:53:53.039Z,22.77
2019-01-25T23:56:19.678Z,18.33
2019-01-25T23:58:46.308Z,21.43
